Time;durP1;ratioP1;P1;durP2;ratioP2;P2;SDS_P1;SDS_P2;PMS_P1;PMS_P2;Temp;Humidity;BMP_temperature;BMP_pressure;BME280_temperature;BME280_humidity;BME280_pressure;Samples;Min_cycle;Max_cycle;Signal;HPM_P1;HPM_P2
2022/05/23 00:02:28;;;;;;;5.65;2.80;;;14.30;99.90;;;;;;4955165;29;20110;-80
2022/05/23 00:04:54;;;;;;;7.72;3.00;;;14.30;99.90;;;;;;4921373;29;20051;-79
2022/05/23 00:07:32;;;;;;;7.38;2.90;;;14.20;99.90;;;;;;4953211;29;20058;-81
2022/05/23 00:09:58;;;;;;;7.00;3.13;;;14.20;99.90;;;;;;4954489;29;20081;-76
2022/05/23 00:12:24;;;;;;;5.82;3.17;;;14.10;99.90;;;;;;4954930;28;20468;-77
2022/05/23 00:14:51;;;;;;;8.95;3.17;;;14.00;99.90;;;;;;4953894;28;20373;-80
2022/05/23 00:17:18;;;;;;;7.77;3.03;;;14.00;99.90;;;;;;4957003;29;20047;-79
2022/05/23 00:19:44;;;;;;;7.63;3.08;;;13.90;99.90;;;;;;4973660;28;20414;-77
2022/05/23 00:22:10;;;;;;;8.68;3.03;;;13.80;99.90;;;;;;4941797;29;20047;-82
2022/05/23 00:24:36;;;;;;;10.90;3.22;;;13.80;99.90;;;;;;4956779;29;20427;-80
2022/05/23 00:27:02;;;;;;;7.05;3.20;;;13.80;99.90;;;;;;4941146;29;20047;-78
2022/05/23 00:29:27;;;;;;;6.43;3.05;;;13.80;99.90;;;;;;4957446;29;20454;-79
2022/05/23 00:37:23;;;;;;;7.32;2.90;;;13.80;99.90;;;;;;4957538;29;20055;-80
2022/05/23 00:39:49;;;;;;;10.52;3.17;;;13.80;99.90;;;;;;4957932;29;20043;-80
2022/05/23 00:45:04;;;;;;;9.63;3.15;;;13.80;99.90;;;;;;4959539;28;20283;-80
2022/05/23 00:47:33;;;;;;;12.50;3.50;;;13.80;99.90;;;;;;4957796;29;20055;-82
2022/05/23 00:49:59;;;;;;;6.50;3.50;;;13.90;99.90;;;;;;4959060;29;20047;-78
2022/05/23 00:52:28;;;;;;;8.63;3.17;;;13.80;99.90;;;;;;4942984;29;20083;-77
2022/05/23 00:54:57;;;;;;;10.88;3.92;;;13.90;99.90;;;;;;4959608;29;20051;-79
2022/05/23 00:57:30;;;;;;;11.40;2.92;;;13.90;99.90;;;;;;4958737;28;20085;-81
2022/05/23 00:59:57;;;;;;;10.45;3.45;;;13.90;99.90;;;;;;4957268;29;20047;-80
2022/05/23 01:02:23;;;;;;;9.65;3.30;;;13.90;99.90;;;;;;4958379;28;20137;-78
2022/05/23 01:04:50;;;;;;;5.78;2.95;;;13.90;99.90;;;;;;4959464;29;20389;-77
2022/05/23 01:07:16;;;;;;;8.10;3.13;;;13.90;99.90;;;;;;4959045;29;20125;-78
2022/05/23 01:09:42;;;;;;;6.85;2.67;;;13.90;99.90;;;;;;4974536;28;20134;-79
2022/05/23 01:12:08;;;;;;;7.05;3.08;;;13.90;99.90;;;;;;4943431;29;20055;-78
2022/05/23 01:14:51;;;;;;;8.20;3.03;;;13.90;99.90;;;;;;4959787;28;20051;-78
2022/05/23 01:17:19;;;;;;;5.22;2.72;;;13.90;99.90;;;;;;4972683;28;20122;-80
2022/05/23 01:19:45;;;;;;;9.00;3.03;;;13.90;99.90;;;;;;4956329;29;20071;-78
2022/05/23 01:22:38;;;;;;;7.22;2.80;;;13.90;99.90;;;;;;4940484;29;20394;-78
2022/05/23 01:25:19;;;;;;;7.85;3.00;;;13.90;99.90;;;;;;4956433;29;20057;-78
2022/05/23 01:27:49;;;;;;;7.82;3.03;;;13.90;99.90;;;;;;4971199;28;20071;-80
2022/05/23 01:30:16;;;;;;;8.98;2.88;;;13.90;99.90;;;;;;4956466;29;20058;-82
2022/05/23 01:32:42;;;;;;;;;;;13.90;99.90;;;;;;4957151;28;20051;-78
2022/05/23 01:35:09;;;;;;;10.30;3.00;;;13.90;99.90;;;;;;4923910;29;19926;-78
2022/05/23 01:37:35;;;;;;;6.45;2.95;;;13.90;99.90;;;;;;4955753;29;20054;-80
2022/05/23 01:40:02;;;;;;;7.97;3.10;;;13.90;99.90;;;;;;4956492;29;20047;-80
2022/05/23 01:42:28;;;;;;;9.52;2.80;;;13.90;99.90;;;;;;4972093;28;20058;-78
2022/05/23 01:44:54;;;;;;;7.30;3.00;;;13.90;99.90;;;;;;4939761;29;20484;-80
2022/05/23 01:47:21;;;;;;;6.78;2.70;;;13.80;99.90;;;;;;4956613;29;20043;-80
2022/05/23 01:49:47;;;;;;;6.82;2.90;;;13.80;99.90;;;;;;4955005;29;20126;-79
2022/05/23 01:52:13;;;;;;;5.75;2.55;;;13.80;99.90;;;;;;4955374;29;20130;-81
2022/05/23 01:54:39;;;;;;;4.57;2.70;;;13.80;99.90;;;;;;4955063;28;20044;-79
2022/05/23 01:57:08;;;;;;;8.07;2.90;;;13.70;99.90;;;;;;4970704;28;20397;-82
2022/05/23 02:02:19;;;;;;;5.50;2.30;;;13.70;99.90;;;;;;4956124;29;20043;-81
2022/05/23 02:04:45;;;;;;;8.33;3.23;;;13.70;99.90;;;;;;4955294;28;20519;-77
2022/05/23 02:07:12;;;;;;;6.13;2.63;;;13.60;99.90;;;;;;4938536;29;20091;-79
2022/05/23 02:09:38;;;;;;;6.40;2.70;;;13.60;99.90;;;;;;4938947;29;20061;-79
2022/05/23 02:12:06;;;;;;;5.60;2.80;;;13.70;99.90;;;;;;4938803;29;20139;-80
2022/05/23 02:14:32;;;;;;;10.48;3.30;;;13.60;99.90;;;;;;4939075;29;20050;-79
2022/05/23 02:16:58;;;;;;;7.90;2.78;;;13.60;99.90;;;;;;4955814;29;20047;-80
2022/05/23 02:19:24;;;;;;;10.43;2.78;;;13.70;99.90;;;;;;4955068;29;20055;-81
2022/05/23 02:21:50;;;;;;;7.20;2.60;;;13.70;99.90;;;;;;4956448;29;20578;-80
2022/05/23 02:24:16;;;;;;;7.18;2.75;;;13.70;99.90;;;;;;4941493;29;20082;-82
2022/05/23 02:26:42;;;;;;;6.30;2.53;;;13.70;99.90;;;;;;4956682;28;20054;-78
2022/05/23 02:29:10;;;;;;;7.00;2.58;;;13.70;99.90;;;;;;4955535;29;20051;-77
2022/05/23 02:31:36;;;;;;;8.32;2.80;;;13.60;99.90;;;;;;4971592;28;20098;-79
2022/05/23 02:34:03;;;;;;;6.63;2.58;;;13.70;99.90;;;;;;4971342;28;20368;-80
2022/05/23 02:36:28;;;;;;;8.48;2.70;;;13.60;99.90;;;;;;4955576;28;20054;-81
2022/05/23 02:38:55;;;;;;;5.15;2.58;;;13.70;99.90;;;;;;4922883;29;20047;-80
2022/05/23 02:41:22;;;;;;;6.43;2.95;;;13.70;99.90;;;;;;4957556;28;20046;-79
2022/05/23 02:43:48;;;;;;;9.15;2.35;;;13.70;99.90;;;;;;4956946;29;20308;-81
2022/05/23 02:46:14;;;;;;;10.33;2.60;;;13.70;99.90;;;;;;4973862;28;20039;-78
2022/05/23 02:48:40;;;;;;;8.40;2.47;;;13.70;99.90;;;;;;4958049;29;20059;-79
2022/05/23 02:51:06;;;;;;;5.75;2.90;;;13.70;99.90;;;;;;4956597;29;20111;-80
2022/05/23 02:53:32;;;;;;;5.68;2.63;;;13.70;99.90;;;;;;4943229;29;20047;-78
2022/05/23 02:55:58;;;;;;;7.28;2.42;;;13.70;99.90;;;;;;4964037;29;20054;-80
2022/05/23 02:58:24;;;;;;;8.07;2.83;;;13.70;99.90;;;;;;4930035;29;20138;-79
2022/05/23 03:00:50;;;;;;;6.40;2.70;;;13.70;99.90;;;;;;4961860;29;20051;-79
2022/05/23 03:03:16;;;;;;;7.60;2.92;;;13.70;99.90;;;;;;4961067;29;20050;-78
2022/05/23 03:05:47;;;;;;;7.88;2.72;;;13.70;99.90;;;;;;4961137;28;20051;-78
2022/05/23 03:08:16;;;;;;;6.38;3.05;;;13.70;99.90;;;;;;4960236;29;20058;-77
2022/05/23 03:10:42;;;;;;;8.85;2.90;;;13.70;99.90;;;;;;4960713;29;20047;-78
2022/05/23 03:13:08;;;;;;;7.97;2.83;;;13.70;99.90;;;;;;4955682;29;20121;-78
2022/05/23 03:15:34;;;;;;;6.32;2.70;;;13.70;99.90;;;;;;4964462;28;20047;-78
2022/05/23 03:18:00;;;;;;;7.07;3.17;;;13.70;99.90;;;;;;4960446;29;20063;-80
2022/05/23 03:20:26;;;;;;;8.82;3.20;;;13.60;99.90;;;;;;4960134;28;20169;-79
2022/05/23 03:28:25;;;;;;;6.85;2.53;;;13.60;99.90;;;;;;4960297;28;20051;-79
2022/05/23 03:30:51;;;;;;;9.25;3.08;;;13.60;99.90;;;;;;4961219;28;20080;-79
2022/05/23 03:33:17;;;;;;;8.85;4.03;;;13.60;99.90;;;;;;4959614;29;20559;-77
2022/05/23 03:35:44;;;;;;;7.95;2.80;;;13.60;99.90;;;;;;4964890;29;20103;-78
2022/05/23 03:38:10;;;;;;;7.68;3.45;;;13.50;99.90;;;;;;4982091;28;20086;-77
2022/05/23 03:40:40;;;;;;;8.45;2.58;;;13.50;99.90;;;;;;4965694;29;20099;-79
2022/05/23 03:43:07;;;;;;;7.82;2.97;;;13.50;99.90;;;;;;4980773;28;20047;-79
2022/05/23 03:45:33;;;;;;;5.72;3.03;;;13.40;99.90;;;;;;4966053;28;20179;-78
2022/05/23 03:48:00;;;;;;;5.47;3.17;;;13.40;99.90;;;;;;4967114;29;20043;-78
2022/05/23 03:50:28;;;;;;;9.50;2.75;;;13.40;99.90;;;;;;4951222;29;20047;-79
2022/05/23 03:52:54;;;;;;;10.80;3.75;;;13.30;99.90;;;;;;4969172;29;20043;-78
2022/05/23 03:55:21;;;;;;;8.70;3.30;;;13.30;99.90;;;;;;4968533;29;20083;-81
2022/05/23 03:57:48;;;;;;;6.35;3.30;;;13.20;99.90;;;;;;4968983;29;20059;-80
2022/05/23 04:00:14;;;;;;;8.07;3.43;;;13.10;99.90;;;;;;4972032;28;20058;-80
2022/05/23 04:02:41;;;;;;;6.78;3.13;;;13.10;99.90;;;;;;4970296;29;20294;-79
2022/05/23 04:05:09;;;;;;;;;;;13.10;99.90;;;;;;4971050;28;20039;-79
2022/05/23 04:07:36;;;;;;;10.18;3.65;;;13.10;99.90;;;;;;4969441;28;19989;-79
2022/05/23 04:10:04;;;;;;;8.43;3.20;;;13.10;99.90;;;;;;4971317;28;20053;-79
2022/05/23 04:12:30;;;;;;;11.05;3.70;;;13.10;99.90;;;;;;4969728;29;20043;-79
2022/05/23 04:14:55;;;;;;;10.25;4.03;;;13.10;99.90;;;;;;4969772;29;20078;-81
2022/05/23 04:17:23;;;;;;;6.93;3.97;;;13.00;99.90;;;;;;4971497;29;20051;-78
2022/05/23 04:19:49;;;;;;;6.53;3.53;;;13.10;99.90;;;;;;4969558;29;20134;-78
2022/05/23 04:22:14;;;;;;;8.13;3.33;;;13.10;99.90;;;;;;4952959;29;20476;-80
2022/05/23 04:24:40;;;;;;;11.63;3.95;;;13.00;99.90;;;;;;4984483;28;20046;-79
2022/05/23 04:27:06;;;;;;;9.93;3.47;;;13.10;99.90;;;;;;4970692;29;20051;-79
2022/05/23 04:29:32;;;;;;;9.20;3.53;;;13.00;99.90;;;;;;4936232;29;20069;-81
2022/05/23 04:31:58;;;;;;;7.90;3.35;;;13.10;99.90;;;;;;4967781;29;20051;-79
2022/05/23 04:37:08;;;;;;;9.90;3.97;;;13.10;99.90;;;;;;4968293;29;20059;-76
2022/05/23 04:39:33;;;;;;;7.15;3.80;;;13.20;99.90;;;;;;4983185;28;20054;-78
2022/05/23 04:42:00;;;;;;;8.30;3.83;;;13.30;99.90;;;;;;4968749;29;20083;-77
2022/05/23 04:44:27;;;;;;;7.28;3.75;;;13.30;99.90;;;;;;4969136;28;20047;-78
2022/05/23 04:49:49;;;;;;;7.22;3.63;;;13.50;99.90;;;;;;4967404;29;20062;-82
2022/05/23 04:52:19;;;;;;;7.38;3.65;;;13.60;99.90;;;;;;4966483;29;20091;-83
2022/05/23 04:54:46;;;;;;;13.23;3.80;;;13.60;99.90;;;;;;4966533;29;20483;-78
2022/05/23 04:57:12;;;;;;;7.45;3.80;;;13.60;99.90;;;;;;4967678;28;20058;-80
2022/05/23 04:59:38;;;;;;;8.93;4.18;;;13.60;99.90;;;;;;4968661;29;20148;-79
2022/05/23 05:02:05;;;;;;;9.77;3.60;;;13.60;99.90;;;;;;4966627;28;20043;-81
2022/05/23 05:04:32;;;;;;;11.50;3.80;;;13.70;99.90;;;;;;4966041;29;20111;-81
2022/05/23 05:06:58;;;;;;;8.30;4.35;;;13.70;99.90;;;;;;4964743;29;20059;-79
2022/05/23 05:09:25;;;;;;;7.03;3.88;;;13.60;99.90;;;;;;4964332;29;20111;-77
2022/05/23 05:11:50;;;;;;;6.93;3.90;;;13.70;99.90;;;;;;4963140;28;20053;-79
2022/05/23 05:14:16;;;;;;;11.48;4.70;;;13.70;99.90;;;;;;4945292;29;20472;-79
2022/05/23 05:16:42;;;;;;;8.80;4.35;;;13.80;99.90;;;;;;4946206;29;20464;-82
2022/05/23 05:19:08;;;;;;;11.50;5.00;;;13.80;99.90;;;;;;4946386;29;20146;-80
2022/05/23 05:21:34;;;;;;;9.65;4.25;;;13.90;99.90;;;;;;4962302;29;20070;-80
2022/05/23 05:24:00;;;;;;;9.13;4.20;;;14.00;99.90;;;;;;4963863;28;20103;-83
2022/05/23 05:26:26;;;;;;;8.40;4.35;;;14.10;99.90;;;;;;4960343;29;20086;-78
2022/05/23 05:28:52;;;;;;;9.95;4.40;;;14.20;99.90;;;;;;4976181;28;20086;-79
2022/05/23 05:31:25;;;;;;;7.70;3.67;;;14.30;99.90;;;;;;4960332;29;20051;-80
2022/05/23 05:33:56;;;;;;;8.65;4.68;;;14.40;99.90;;;;;;4960139;29;20046;-78
2022/05/23 05:36:30;;;;;;;12.60;4.90;;;14.60;99.90;;;;;;4958798;29;20047;-80
2022/05/23 05:39:05;;;;;;;13.80;4.47;;;14.80;99.90;;;;;;4957930;29;20138;-79
2022/05/23 05:41:41;;;;;;;10.40;4.50;;;14.90;99.90;;;;;;4958284;28;20412;-78
2022/05/23 05:44:14;;;;;;;13.05;4.75;;;15.00;99.90;;;;;;4942530;29;20051;-78
2022/05/23 05:46:46;;;;;;;8.38;4.57;;;15.10;99.90;;;;;;4972174;28;20129;-79
2022/05/23 05:49:18;;;;;;;9.57;4.32;;;15.20;99.90;;;;;;4957402;28;20054;-79
2022/05/23 05:51:45;;;;;;;13.70;4.63;;;15.20;99.90;;;;;;4955940;29;20051;-81
2022/05/23 05:54:19;;;;;;;9.15;4.60;;;15.20;99.90;;;;;;4955928;28;20095;-82
2022/05/23 05:56:45;;;;;;;14.38;5.13;;;15.20;99.90;;;;;;4956673;29;20476;-78
2022/05/23 05:59:12;;;;;;;14.40;4.85;;;15.20;99.90;;;;;;4956680;28;20454;-78
2022/05/23 06:01:40;;;;;;;;;;;15.30;99.90;;;;;;4939891;29;20134;-78
2022/05/23 06:04:06;;;;;;;11.60;5.13;;;15.40;99.90;;;;;;4955507;28;19944;-79
2022/05/23 06:12:00;;;;;;;11.27;5.20;;;15.70;99.90;;;;;;4955273;29;20138;-77
2022/05/23 06:14:26;;;;;;;10.75;4.88;;;15.90;99.90;;;;;;4954626;28;20182;-76
2022/05/23 06:16:52;;;;;;;11.48;4.82;;;16.00;99.90;;;;;;4971003;28;20047;-77
2022/05/23 06:19:19;;;;;;;10.07;5.07;;;16.20;99.90;;;;;;4970887;28;20059;-78
2022/05/23 06:21:44;;;;;;;;;;;16.40;99.90;;;;;;4955275;29;20050;-80
2022/05/23 06:24:10;;;;;;;8.90;4.63;;;16.60;99.90;;;;;;4955078;28;19923;-77
2022/05/23 06:26:36;;;;;;;11.95;4.88;;;16.60;99.90;;;;;;4955639;29;20047;-80
2022/05/23 06:29:03;;;;;;;12.35;5.88;;;16.80;99.90;;;;;;4939667;29;20082;-78
2022/05/23 06:31:28;;;;;;;;;;;16.90;99.90;;;;;;4955144;29;20055;-77
2022/05/23 06:33:54;;;;;;;7.87;4.50;;;17.00;99.90;;;;;;4955547;28;19997;-77
2022/05/23 06:36:20;;;;;;;10.25;4.93;;;17.00;99.90;;;;;;4957052;29;20055;-80
2022/05/23 06:38:47;;;;;;;9.60;4.40;;;17.00;99.90;;;;;;4939455;29;20053;-79
2022/05/23 06:41:12;;;;;;;12.93;5.00;;;17.20;99.90;;;;;;4971810;28;20047;-81
2022/05/23 06:43:40;;;;;;;13.23;4.40;;;17.30;99.90;;;;;;4939086;29;20487;-79
2022/05/23 06:46:07;;;;;;;11.20;4.72;;;17.40;99.90;;;;;;4955716;28;20137;-80
2022/05/23 06:48:34;;;;;;;9.93;5.15;;;17.50;99.90;;;;;;4939086;29;20047;-77
2022/05/23 06:50:59;;;;;;;;;;;17.60;99.90;;;;;;4955898;29;20051;-78
2022/05/23 06:53:27;;;;;;;9.67;4.67;;;17.70;99.90;;;;;;4924214;29;20263;-78
2022/05/23 06:55:53;;;;;;;9.20;4.65;;;17.90;99.90;;;;;;4957694;29;20287;-78
2022/05/23 06:58:21;;;;;;;12.47;5.07;;;18.00;99.90;;;;;;4957274;29;20125;-77
2022/05/23 07:00:48;;;;;;;9.02;4.50;;;18.20;99.90;;;;;;4964116;29;20098;-79
2022/05/23 07:03:15;;;;;;;9.77;4.50;;;18.40;99.90;;;;;;4965771;29;20047;-76
2022/05/23 07:14:00;;;;;;;8.30;4.60;;;19.10;99.30;;;;;;4966516;28;20126;-80
2022/05/23 07:16:29;;;;;;;9.32;4.75;;;19.10;99.00;;;;;;4966184;29;20051;-76
2022/05/23 07:18:56;;;;;;;11.90;5.05;;;19.20;99.50;;;;;;4964245;28;20155;-77
2022/05/23 07:21:24;;;;;;;13.23;5.13;;;19.20;99.10;;;;;;4961874;29;20051;-76
2022/05/23 07:23:50;;;;;;;10.63;4.90;;;19.30;99.00;;;;;;4963415;29;20066;-78
2022/05/23 07:26:17;;;;;;;11.07;4.70;;;19.30;98.90;;;;;;4949433;29;20117;-78
2022/05/23 07:28:43;;;;;;;10.13;4.45;;;19.40;98.30;;;;;;4968165;29;20403;-76
2022/05/23 07:31:11;;;;;;;12.15;5.45;;;19.50;97.90;;;;;;4968181;29;20039;-79
2022/05/23 07:33:39;;;;;;;10.52;4.93;;;19.50;98.40;;;;;;4949605;29;20102;-77
2022/05/23 07:36:06;;;;;;;10.55;5.22;;;19.60;98.50;;;;;;4946932;29;20059;-81
2022/05/23 07:38:32;;;;;;;12.43;5.28;;;19.60;98.90;;;;;;4943093;29;20058;-79
2022/05/23 07:40:59;;;;;;;12.82;5.20;;;19.70;99.20;;;;;;4958145;29;20054;-80
2022/05/23 07:43:25;;;;;;;11.05;4.68;;;19.80;98.30;;;;;;4961972;29;20048;-76
2022/05/23 07:45:53;;;;;;;9.40;4.53;;;19.90;98.50;;;;;;4957556;28;20071;-78
2022/05/23 07:48:19;;;;;;;10.05;4.40;;;20.00;98.70;;;;;;4958330;29;20140;-77
2022/05/23 07:50:46;;;;;;;11.20;5.15;;;20.00;98.90;;;;;;4956374;29;20070;-79
2022/05/23 08:01:29;;;;;;;12.13;5.10;;;20.10;97.90;;;;;;4957526;28;20123;-78
2022/05/23 08:03:55;;;;;;;12.32;5.03;;;20.20;96.80;;;;;;4956644;29;20043;-79
2022/05/23 08:06:21;;;;;;;12.40;5.55;;;20.40;97.70;;;;;;4971353;28;20050;-79
2022/05/23 08:08:47;;;;;;;12.20;5.03;;;20.50;97.40;;;;;;4955290;29;20043;-79
2022/05/23 08:11:14;;;;;;;11.87;5.33;;;20.60;96.30;;;;;;4957133;29;20290;-79
2022/05/23 08:13:47;;;;;;;11.75;5.07;;;20.70;96.60;;;;;;4953661;28;20079;-77
2022/05/23 08:16:12;;;;;;;10.13;4.88;;;20.80;96.20;;;;;;4955087;28;20055;-78
2022/05/23 08:18:38;;;;;;;18.87;5.80;;;20.70;96.30;;;;;;4952979;29;20472;-81
2022/05/23 08:21:04;;;;;;;12.10;5.30;;;20.80;96.70;;;;;;4952911;28;20504;-79
2022/05/23 08:23:30;;;;;;;9.77;5.30;;;20.90;96.20;;;;;;4970315;28;20079;-78
2022/05/23 08:25:56;;;;;;;10.80;5.20;;;20.90;96.50;;;;;;4954010;29;20063;-75
2022/05/23 08:28:22;;;;;;;17.73;6.03;;;21.00;96.50;;;;;;4954241;29;20439;-78
2022/05/23 08:30:48;;;;;;;12.07;5.20;;;21.10;95.90;;;;;;4969034;28;20142;-77
2022/05/23 08:33:13;;;;;;;13.17;5.83;;;21.20;95.50;;;;;;4952628;29;20094;-77
2022/05/23 08:35:39;;;;;;;12.70;6.13;;;21.10;94.80;;;;;;4954482;29;20039;-79
2022/05/23 08:38:05;;;;;;;13.60;6.33;;;21.10;95.40;;;;;;4939114;29;20088;-78
2022/05/23 08:40:52;;;;;;;11.50;5.30;;;21.20;96.00;;;;;;4958142;28;20122;-78
2022/05/23 08:43:27;;;;;;;12.50;5.38;;;21.20;95.20;;;;;;4957283;29;20057;-80
2022/05/23 08:45:57;;;;;;;10.95;5.53;;;21.30;93.90;;;;;;4957808;29;20126;-79
2022/05/23 08:48:54;;;;;;;12.32;4.97;;;21.20;95.00;;;;;;4958369;28;20047;-78
2022/05/23 08:51:48;;;;;;;9.50;5.07;;;21.30;95.20;;;;;;4935612;29;20063;-79
2022/05/23 08:54:20;;;;;;;14.30;5.90;;;21.40;95.40;;;;;;4958323;28;20503;-80
2022/05/23 08:57:01;;;;;;;10.68;5.18;;;21.50;95.00;;;;;;4976551;28;20098;-79
2022/05/23 08:59:43;;;;;;;13.63;5.93;;;21.60;95.10;;;;;;4977666;28;20496;-79
2022/05/23 09:02:20;;;;;;;11.40;5.07;;;21.70;94.50;;;;;;4961836;29;20506;-79
2022/05/23 09:05:10;;;;;;;10.82;4.78;;;21.70;94.80;;;;;;4961977;29;20154;-79
2022/05/23 09:07:44;;;;;;;10.52;4.70;;;21.80;95.00;;;;;;4957905;29;20075;-78
2022/05/23 09:10:22;;;;;;;10.82;4.38;;;22.00;94.30;;;;;;4961610;29;20132;-79
2022/05/23 09:12:51;;;;;;;9.23;3.97;;;22.10;94.20;;;;;;4942393;29;20054;-78
2022/05/23 09:15:17;;;;;;;10.38;4.20;;;22.20;94.40;;;;;;4958517;29;20114;-79
2022/05/23 09:17:50;;;;;;;8.70;4.30;;;22.50;93.90;;;;;;4958263;28;20055;-81
2022/05/23 09:20:33;;;;;;;11.27;4.80;;;22.50;93.30;;;;;;4962386;29;20055;-79
2022/05/23 09:23:03;;;;;;;11.80;3.97;;;22.70;91.90;;;;;;4960950;29;20463;-79
2022/05/23 09:25:30;;;;;;;9.45;3.72;;;22.90;92.30;;;;;;4958837;29;20114;-76
2022/05/23 09:28:28;;;;;;;10.15;3.83;;;23.20;90.70;;;;;;4956862;29;20146;-79
2022/05/23 09:31:07;;;;;;;8.98;3.28;;;23.40;89.10;;;;;;4960665;28;20463;-78
2022/05/23 09:33:46;;;;;;;8.55;3.17;;;23.60;87.90;;;;;;4960777;28;20131;-78
2022/05/23 09:36:20;;;;;;;7.88;3.20;;;23.80;89.10;;;;;;4957492;29;20106;-80
2022/05/23 09:38:52;;;;;;;7.25;2.58;;;24.20;88.20;;;;;;4956205;29;20059;-78
2022/05/23 09:50:05;;;;;;;8.80;1.95;;;24.70;74.20;;;;;;4955205;29;20055;-78
2022/05/23 09:52:32;;;;;;;6.53;2.13;;;25.00;73.80;;;;;;4939236;29;20047;-76
2022/05/23 09:55:07;;;;;;;6.15;2.00;;;25.20;72.70;;;;;;4955245;29;20059;-78
2022/05/23 09:57:39;;;;;;;7.20;2.40;;;25.40;72.30;;;;;;4938893;29;20510;-76
2022/05/23 10:00:08;;;;;;;6.85;2.42;;;25.50;70.00;;;;;;4956455;29;20043;-79
2022/05/23 10:02:38;;;;;;;7.13;2.63;;;25.50;70.20;;;;;;4955287;29;20082;-78
2022/05/23 10:05:27;;;;;;;7.03;2.50;;;25.60;70.20;;;;;;4955982;29;20043;-78
2022/05/23 10:07:56;;;;;;;6.53;2.72;;;25.60;71.10;;;;;;4955897;28;20055;-80
2022/05/23 10:10:32;;;;;;;7.78;2.38;;;25.50;69.70;;;;;;4955433;29;20079;-79
2022/05/23 10:13:10;;;;;;;7.10;2.60;;;25.40;68.20;;;;;;4956243;29;20174;-79
2022/05/23 10:15:52;;;;;;;7.38;3.00;;;25.30;69.90;;;;;;4955658;28;20137;-77
2022/05/23 10:18:29;;;;;;;8.63;2.90;;;25.20;69.30;;;;;;4954720;29;20067;-78
2022/05/23 10:20:56;;;;;;;10.63;3.05;;;25.20;69.70;;;;;;4956097;29;20059;-77
2022/05/23 10:23:26;;;;;;;6.53;2.50;;;25.10;70.50;;;;;;4954882;28;20051;-78
2022/05/23 10:26:23;;;;;;;9.05;2.97;;;25.10;71.30;;;;;;4954877;29;20139;-80
2022/05/23 10:28:55;;;;;;;6.72;2.60;;;25.00;70.20;;;;;;4957342;29;20367;-79
2022/05/23 10:31:37;;;;;;;11.18;3.22;;;25.00;72.20;;;;;;4957543;29;20051;-78
2022/05/23 10:34:14;;;;;;;8.80;3.08;;;25.10;70.50;;;;;;4957938;29;20051;-80
2022/05/23 10:36:46;;;;;;;6.78;2.95;;;24.90;70.60;;;;;;4957372;28;20130;-80
2022/05/23 10:42:30;;;;;;;7.38;2.50;;;24.60;70.40;;;;;;4956957;29;20460;-79
2022/05/23 10:45:14;;;;;;;7.60;2.33;;;24.40;72.10;;;;;;4940635;28;20222;-77
2022/05/23 10:47:57;;;;;;;7.35;2.33;;;24.50;71.30;;;;;;4958113;29;20476;-78
2022/05/23 10:50:30;;;;;;;5.38;2.30;;;24.50;71.70;;;;;;4956440;29;20048;-79
2022/05/23 10:53:52;;;;;;;5.53;1.92;;;24.60;72.10;;;;;;4956451;28;20043;-79
2022/05/23 10:56:29;;;;;;;3.92;1.63;;;24.70;71.40;;;;;;4934222;29;20055;-77
2022/05/23 10:58:59;;;;;;;5.30;2.00;;;24.90;68.30;;;;;;4933591;29;20165;-77
2022/05/23 11:01:37;;;;;;;7.65;2.47;;;24.90;68.30;;;;;;4971414;28;20051;-78
2022/05/23 11:04:35;;;;;;;7.80;2.40;;;24.90;67.50;;;;;;4957208;29;20082;-77
2022/05/23 11:07:28;;;;;;;7.70;2.30;;;24.80;68.20;;;;;;4954639;29;20055;-77
2022/05/23 11:10:08;;;;;;;5.80;2.42;;;24.70;69.30;;;;;;4955869;28;20051;-76
2022/05/23 11:12:43;;;;;;;12.80;3.20;;;24.90;69.80;;;;;;4954514;29;20051;-78
2022/05/23 11:15:24;;;;;;;9.65;3.20;;;24.90;69.10;;;;;;4955060;29;20062;-79
2022/05/23 11:18:06;;;;;;;10.23;3.20;;;24.90;68.70;;;;;;4954661;28;20515;-77
2022/05/23 11:20:37;;;;;;;6.70;2.55;;;25.00;70.10;;;;;;4954839;29;20511;-78
2022/05/23 11:23:42;;;;;;;7.47;3.15;;;25.20;69.90;;;;;;4954866;28;20039;-78
2022/05/23 11:26:20;;;;;;;9.13;3.03;;;25.40;68.80;;;;;;4954606;29;20102;-79
2022/05/23 11:34:44;;;;;;;9.90;2.88;;;25.90;69.50;;;;;;4954745;29;20043;-79
2022/05/23 11:37:43;;;;;;;11.63;2.85;;;26.00;70.00;;;;;;4954803;29;20047;-80
2022/05/23 11:40:13;;;;;;;6.63;2.72;;;26.20;68.10;;;;;;4956671;29;20161;-80
2022/05/23 11:42:49;;;;;;;6.25;2.50;;;26.20;67.20;;;;;;4956394;28;20051;-80
2022/05/23 11:45:57;;;;;;;4.93;2.28;;;26.10;66.60;;;;;;4956558;29;20086;-78
2022/05/23 11:48:45;;;;;;;5.65;2.08;;;26.10;67.90;;;;;;4954941;29;20169;-79
2022/05/23 11:51:23;;;;;;;5.72;1.95;;;26.20;66.80;;;;;;4954914;29;20058;-81
2022/05/23 11:54:10;;;;;;;8.88;2.00;;;26.20;65.20;;;;;;4955439;28;20372;-79
2022/05/23 11:56:35;;;;;;;5.32;2.33;;;26.10;65.50;;;;;;4960916;29;20095;-79
2022/05/23 11:59:02;;;;;;;11.43;2.77;;;25.60;66.60;;;;;;4960784;29;20087;-79
2022/05/23 12:01:30;;;;;;;8.13;2.97;;;25.70;67.80;;;;;;4961446;29;20073;-78
2022/05/23 12:03:56;;;;;;;11.40;3.05;;;25.50;67.90;;;;;;4939806;29;20118;-76
2022/05/23 12:06:22;;;;;;;9.52;3.50;;;25.50;67.10;;;;;;4971037;28;20051;-76
2022/05/23 12:09:12;;;;;;;10.90;4.23;;;25.50;68.10;;;;;;4956367;29;20062;-78
2022/05/23 12:11:41;;;;;;;7.03;3.33;;;25.50;69.00;;;;;;4960215;28;20058;-77
2022/05/23 12:14:33;;;;;;;8.93;4.20;;;25.50;69.90;;;;;;4961379;29;20055;-78
2022/05/23 12:16:58;;;;;;;8.90;4.15;;;25.60;69.40;;;;;;4951456;29;20102;-78
2022/05/23 12:19:41;;;;;;;10.27;4.20;;;25.70;69.40;;;;;;4957239;29;20118;-78
2022/05/23 12:22:21;;;;;;;23.25;5.40;;;25.80;69.30;;;;;;4959967;28;20051;-77
2022/05/23 12:25:09;;;;;;;11.13;4.55;;;25.90;69.20;;;;;;4959860;29;20097;-79
2022/05/23 12:28:04;;;;;;;10.98;4.93;;;26.00;69.70;;;;;;4959208;29;20146;-78
2022/05/23 12:30:41;;;;;;;12.48;4.65;;;26.10;69.10;;;;;;4941727;29;20054;-78
2022/05/23 12:33:23;;;;;;;9.15;4.88;;;26.10;69.60;;;;;;4957705;29;20053;-77
2022/05/23 12:35:57;;;;;;;9.50;5.15;;;26.10;69.30;;;;;;4957337;29;20058;-78
2022/05/23 12:38:41;;;;;;;10.68;5.75;;;25.80;69.60;;;;;;4958478;29;20047;-77
2022/05/23 12:41:27;;;;;;;11.68;5.72;;;25.60;70.20;;;;;;4958279;28;20101;-79
2022/05/23 12:44:29;;;;;;;11.25;5.50;;;25.30;71.30;;;;;;4957340;29;20106;-78
2022/05/23 12:47:22;;;;;;;11.65;5.18;;;25.00;71.90;;;;;;4957384;28;20483;-79
2022/05/23 12:50:15;;;;;;;12.88;5.30;;;24.80;73.20;;;;;;4956997;29;20051;-78
2022/05/23 12:53:07;;;;;;;12.82;5.70;;;24.70;74.20;;;;;;4957790;28;20384;-79
2022/05/23 12:55:41;;;;;;;14.43;6.30;;;24.60;74.70;;;;;;4957343;29;20051;-78
2022/05/23 12:58:16;;;;;;;10.95;5.68;;;24.60;75.40;;;;;;4957267;28;20051;-77
2022/05/23 13:01:02;;;;;;;15.27;6.75;;;24.60;75.50;;;;;;4957980;29;20384;-77
2022/05/23 13:03:33;;;;;;;14.10;6.45;;;24.70;75.70;;;;;;4957215;28;20047;-78
2022/05/23 13:06:36;;;;;;;13.52;6.50;;;24.70;75.80;;;;;;4957158;29;20488;-78
2022/05/23 13:09:07;;;;;;;12.25;6.55;;;24.60;76.10;;;;;;4945034;29;20146;-77
2022/05/23 13:11:39;;;;;;;14.43;6.55;;;24.50;77.20;;;;;;4957040;29;20047;-77
2022/05/23 13:14:05;;;;;;;10.57;5.78;;;24.50;76.40;;;;;;4955836;29;20043;-78
2022/05/23 13:16:36;;;;;;;15.90;6.53;;;24.40;77.20;;;;;;4940433;29;20081;-78
2022/05/23 13:22:09;;;;;;;11.23;5.80;;;24.30;77.10;;;;;;4956021;29;20082;-78
2022/05/23 13:24:53;;;;;;;12.02;6.40;;;24.20;78.10;;;;;;4955401;29;20065;-78
2022/05/23 13:27:27;;;;;;;12.43;5.80;;;24.10;79.00;;;;;;4956348;29;20062;-77
2022/05/23 13:29:58;;;;;;;14.05;6.22;;;24.10;79.60;;;;;;4956468;29;20342;-77
2022/05/23 13:32:26;;;;;;;10.83;5.70;;;24.30;78.50;;;;;;4973396;28;20376;-79
2022/05/23 13:34:53;;;;;;;10.43;5.53;;;24.50;78.90;;;;;;4960234;29;20059;-78
2022/05/23 13:37:35;;;;;;;15.38;6.25;;;24.50;79.90;;;;;;4975297;28;20039;-76
2022/05/23 13:40:09;;;;;;;10.45;5.80;;;24.70;78.40;;;;;;4958270;29;20058;-78
2022/05/23 13:42:34;;;;;;;11.85;6.40;;;25.00;77.80;;;;;;4957097;29;20047;-78
2022/05/23 13:45:17;;;;;;;15.30;6.10;;;25.10;76.80;;;;;;4955831;29;20058;-77
2022/05/23 13:48:06;;;;;;;12.77;6.10;;;25.20;77.10;;;;;;4956174;29;20133;-78
2022/05/23 13:50:47;;;;;;;10.45;6.03;;;25.40;76.80;;;;;;4961588;29;20118;-77
2022/05/23 13:53:22;;;;;;;13.40;6.10;;;25.50;76.70;;;;;;4973059;28;20051;-79
2022/05/23 13:55:50;;;;;;;10.10;5.47;;;25.60;76.40;;;;;;4960606;28;20518;-79
2022/05/23 13:58:27;;;;;;;13.10;5.38;;;25.80;76.50;;;;;;4962202;29;20051;-78
2022/05/23 14:01:06;;;;;;;14.07;5.88;;;25.90;76.10;;;;;;4959920;29;20126;-79
2022/05/23 14:03:41;;;;;;;11.75;5.43;;;25.90;75.80;;;;;;4942749;29;20229;-79
2022/05/23 14:06:13;;;;;;;10.68;5.30;;;25.90;75.80;;;;;;4958741;29;20360;-79
2022/05/23 14:08:44;;;;;;;9.55;5.70;;;25.80;75.50;;;;;;4960041;29;20133;-77
2022/05/23 14:11:28;;;;;;;13.55;5.75;;;25.80;75.80;;;;;;4945672;29;20383;-78